Time;durP1;ratioP1;P1;durP2;ratioP2;P2;SDS_P1;SDS_P2;PMS_P1;PMS_P2;Temp;Humidity;BMP_temperature;BMP_pressure;BME280_temperature;BME280_humidity;BME280_pressure;Samples;Min_cycle;Max_cycle;Signal;HPM_P1;HPM_P2
2020/12/03 00:02:16;;;;;;;;;;;;;20.90;96632.00;;;;5095731;28;1144;-32
2020/12/03 00:04:43;;;;;;;;;;;;;20.90;96634.00;;;;5096200;28;1113;-34
2020/12/03 00:07:09;;;;;;;;;;;;;20.90;96636.00;;;;5095745;28;2080;-32
2020/12/03 00:09:35;;;;;;;;;;;;;20.80;96627.00;;;;5113430;28;1631;-33
2020/12/03 00:12:01;;;;;;;;;;;;;20.80;96630.00;;;;5110510;28;1423;-34
2020/12/03 00:14:27;;;;;;;;;;;;;20.90;96628.00;;;;5095681;28;1198;-32
2020/12/03 00:16:53;;;;;;;;;;;;;20.90;96620.00;;;;5094431;28;1981;-36
2020/12/03 00:19:20;;;;;;;;;;;;;20.80;96621.00;;;;5095247;28;1090;-34
2020/12/03 00:21:46;;;;;;;;;;;;;20.80;96620.00;;;;5095347;28;2090;-32
2020/12/03 00:24:13;;;;;;;;;;;;;20.80;96611.00;;;;5095090;28;1171;-34
2020/12/03 00:26:39;;;;;;;;;;;;;20.80;96608.00;;;;5094338;28;1977;-35
2020/12/03 00:29:05;;;;;;;;;;;;;20.80;96600.00;;;;5095265;28;1109;-35
2020/12/03 00:31:31;;;;;;;;;;;;;20.70;96599.00;;;;5095190;28;1289;-36
2020/12/03 00:33:57;;;;;;;;;;;;;20.70;96595.00;;;;5095321;28;1044;-32
2020/12/03 00:36:23;;;;;;;;;;;;;20.80;96593.00;;;;5095417;28;1084;-32
2020/12/03 00:38:49;;;;;;;;;;;;;20.70;96600.00;;;;5094847;28;1981;-32
2020/12/03 00:41:17;;;;;;;;;;;;;20.70;96594.00;;;;5094832;28;1300;-33
2020/12/03 00:43:42;;;;;;;;;;;;;20.70;96597.00;;;;5094410;28;1587;-34
2020/12/03 00:46:09;;;;;;;;;;;;;20.70;96600.00;;;;5095002;28;1108;-32
2020/12/03 00:48:35;;;;;;;;;;;;;20.70;96597.00;;;;5094908;28;1168;-35
2020/12/03 00:51:01;;;;;;;;;;;;;20.60;96592.00;;;;5094261;28;1227;-32
2020/12/03 00:53:27;;;;;;;;;;;;;20.50;96593.00;;;;5092912;28;1021;-32
2020/12/03 00:55:53;;;;;;;;;;;;;20.50;96599.00;;;;5093647;28;1095;-33
2020/12/03 00:58:19;;;;;;;;;;;;;20.40;96589.00;;;;5095033;28;1906;-35
2020/12/03 01:00:45;;;;;;;;;;;;;20.40;96593.00;;;;5094676;28;1454;-34
2020/12/03 01:03:12;;;;;;;;;;;;;20.40;96588.00;;;;5094762;28;1175;-33
2020/12/03 01:05:38;;;;;;;;;;;;;20.40;96583.00;;;;5094795;28;1055;-35
2020/12/03 01:08:04;;;;;;;;;;;;;20.30;96581.00;;;;5094527;28;1093;-33
2020/12/03 01:10:30;;;;;;;;;;;;;20.30;96589.00;;;;5093709;28;1359;-33
2020/12/03 01:12:56;;;;;;;;;;;;;20.30;96586.00;;;;5094750;28;1083;-37
2020/12/03 01:15:22;;;;;;;;;;;;;20.20;96587.00;;;;5094565;28;1098;-36
2020/12/03 01:17:48;;;;;;;;;;;;;20.20;96585.00;;;;5094494;28;1898;-32
2020/12/03 01:20:16;;;;;;;;;;;;;20.20;96586.00;;;;5094076;28;1107;-36
2020/12/03 01:22:42;;;;;;;;;;;;;20.20;96585.00;;;;5094242;28;1181;-33
2020/12/03 01:25:08;;;;;;;;;;;;;20.10;96582.00;;;;5094480;28;1711;-34
2020/12/03 01:27:34;;;;;;;;;;;;;20.10;96575.00;;;;5094255;28;1128;-32
2020/12/03 01:30:00;;;;;;;;;;;;;20.10;96570.00;;;;5094008;28;1202;-33
2020/12/03 01:32:25;;;;;;;;;;;;;20.10;96565.00;;;;5094206;28;1277;-34
2020/12/03 01:34:51;;;;;;;;;;;;;20.10;96563.00;;;;5094162;28;1080;-35
2020/12/03 01:37:18;;;;;;;;;;;;;20.10;96536.00;;;;5093899;28;1963;-36
2020/12/03 01:39:44;;;;;;;;;;;;;20.00;96538.00;;;;5094097;28;1107;-35
2020/12/03 01:42:10;;;;;;;;;;;;;20.00;96550.00;;;;5094104;28;1280;-33
2020/12/03 01:44:38;;;;;;;;;;;;;20.00;96544.00;;;;5094041;28;1179;-33
2020/12/03 01:47:04;;;;;;;;;;;;;20.00;96534.00;;;;5093765;28;1028;-33
2020/12/03 01:49:31;;;;;;;;;;;;;20.00;96545.00;;;;5094217;28;1099;-35
2020/12/03 01:51:57;;;;;;;;;;;;;20.00;96554.00;;;;5093424;28;1283;-34
2020/12/03 01:54:24;;;;;;;;;;;;;19.90;96560.00;;;;5094025;28;1080;-33
2020/12/03 01:56:55;;;;;;;;;;;;;19.90;96549.00;;;;5093534;28;949;-34
2020/12/03 01:59:21;;;;;;;;;;;;;19.90;96546.00;;;;5093465;28;1977;-33
2020/12/03 02:01:47;;;;;;;;;;;;;19.90;96523.00;;;;5093956;28;1212;-35
2020/12/03 02:04:13;;;;;;;;;;;;;19.90;96527.00;;;;5093498;28;1084;-34
2020/12/03 02:06:39;;;;;;;;;;;;;19.80;96519.00;;;;5093669;28;1032;-33
2020/12/03 02:09:05;;;;;;;;;;;;;19.80;96512.00;;;;5093422;28;1124;-33
2020/12/03 02:11:32;;;;;;;;;;;;;19.80;96515.00;;;;5093547;28;1215;-33
2020/12/03 02:13:59;;;;;;;;;;;;;19.80;96504.00;;;;5093455;28;1174;-34
2020/12/03 02:16:25;;;;;;;;;;;;;19.80;96507.00;;;;5093451;28;1084;-32
2020/12/03 02:18:51;;;;;;;;;;;;;19.70;96498.00;;;;5093088;28;1981;-32
2020/12/03 02:21:18;;;;;;;;;;;;;19.70;96500.00;;;;5092137;28;1210;-32
2020/12/03 02:23:44;;;;;;;;;;;;;19.70;96484.00;;;;5093149;28;1163;-35
2020/12/03 02:26:10;;;;;;;;;;;;;19.70;96479.00;;;;5093307;28;1063;-32
2020/12/03 02:28:36;;;;;;;;;;;;;19.70;96477.00;;;;5093154;28;1194;-34
2020/12/03 02:31:02;;;;;;;;;;;;;19.70;96480.00;;;;5092847;28;1309;-32
2020/12/03 02:33:28;;;;;;;;;;;;;19.70;96478.00;;;;5092930;28;1027;-33
2020/12/03 02:35:54;;;;;;;;;;;;;19.70;96477.00;;;;5093108;28;1082;-32
2020/12/03 02:38:21;;;;;;;;;;;;;19.70;96497.00;;;;5093114;28;1913;-34
2020/12/03 02:40:47;;;;;;;;;;;;;19.60;96500.00;;;;5092714;28;1289;-34
2020/12/03 02:43:12;;;;;;;;;;;;;19.60;96490.00;;;;5093092;28;1171;-36
2020/12/03 02:45:38;;;;;;;;;;;;;19.60;96474.00;;;;5092809;28;1179;-32
2020/12/03 02:48:04;;;;;;;;;;;;;19.60;96458.00;;;;5093235;28;971;-33
2020/12/03 02:50:30;;;;;;;;;;;;;19.60;96442.00;;;;5092692;28;1223;-35
2020/12/03 02:52:56;;;;;;;;;;;;;19.50;96447.00;;;;5092869;28;1032;-33
2020/12/03 02:55:23;;;;;;;;;;;;;19.50;96440.00;;;;5092920;28;1015;-34
2020/12/03 02:57:49;;;;;;;;;;;;;19.50;96445.00;;;;5092588;28;1905;-34
2020/12/03 03:00:15;;;;;;;;;;;;;19.50;96438.00;;;;5092397;28;1447;-34
2020/12/03 03:02:41;;;;;;;;;;;;;19.50;96435.00;;;;5092534;28;1265;-32
2020/12/03 03:05:07;;;;;;;;;;;;;19.50;96435.00;;;;5092646;28;1128;-32
2020/12/03 03:07:33;;;;;;;;;;;;;19.40;96429.00;;;;5092585;28;1167;-33
2020/12/03 03:09:59;;;;;;;;;;;;;19.40;96428.00;;;;5092562;28;1056;-34
2020/12/03 03:12:26;;;;;;;;;;;;;19.40;96418.00;;;;5092363;28;1189;-32
2020/12/03 03:14:53;;;;;;;;;;;;;19.40;96414.00;;;;5092727;28;1258;-32
2020/12/03 03:17:19;;;;;;;;;;;;;19.40;96413.00;;;;5092565;28;1957;-32
2020/12/03 03:19:45;;;;;;;;;;;;;19.40;96413.00;;;;5092468;28;1168;-33
2020/12/03 03:22:11;;;;;;;;;;;;;19.40;96404.00;;;;5092260;28;1255;-36
2020/12/03 03:24:37;;;;;;;;;;;;;19.30;96410.00;;;;5092631;28;1040;-32
2020/12/03 03:27:03;;;;;;;;;;;;;19.30;96410.00;;;;5092405;28;1032;-32
2020/12/03 03:29:29;;;;;;;;;;;;;19.30;96408.00;;;;5091470;28;1082;-32
2020/12/03 03:31:55;;;;;;;;;;;;;19.30;96425.00;;;;5090585;28;1187;-33
2020/12/03 03:34:21;;;;;;;;;;;;;19.30;96428.00;;;;5092251;28;1013;-34
2020/12/03 03:36:47;;;;;;;;;;;;;19.30;96422.00;;;;5091856;28;1124;-34
2020/12/03 03:39:17;;;;;;;;;;;;;19.30;96422.00;;;;5091890;28;2398;-35
2020/12/03 03:41:43;;;;;;;;;;;;;19.30;96419.00;;;;5091959;28;1220;-32
2020/12/03 03:44:09;;;;;;;;;;;;;19.30;96409.00;;;;5092001;28;1227;-36
2020/12/03 03:46:36;;;;;;;;;;;;;19.20;96412.00;;;;5092146;28;1091;-32
2020/12/03 03:49:02;;;;;;;;;;;;;19.20;96419.00;;;;5092139;28;1080;-32
2020/12/03 03:51:28;;;;;;;;;;;;;19.20;96419.00;;;;5091668;28;1205;-36
2020/12/03 03:53:53;;;;;;;;;;;;;19.20;96412.00;;;;5091969;28;1101;-32
2020/12/03 03:56:19;;;;;;;;;;;;;19.20;96427.00;;;;5091981;28;1099;-33
2020/12/03 03:58:45;;;;;;;;;;;;;19.20;96415.00;;;;5091638;28;1977;-33
2020/12/03 04:01:11;;;;;;;;;;;;;19.10;96405.00;;;;5091749;28;1367;-33
2020/12/03 04:03:38;;;;;;;;;;;;;19.10;96410.00;;;;5091626;28;1179;-32
2020/12/03 04:06:04;;;;;;;;;;;;;19.10;96414.00;;;;5092014;28;1053;-33
2020/12/03 04:08:30;;;;;;;;;;;;;19.10;96412.00;;;;5091637;28;1112;-32
2020/12/03 04:10:56;;;;;;;;;;;;;19.10;96408.00;;;;5091252;28;1140;-33
2020/12/03 04:13:22;;;;;;;;;;;;;19.10;96417.00;;;;5091516;28;1083;-34
2020/12/03 04:15:48;;;;;;;;;;;;;19.00;96416.00;;;;5092111;28;1024;-32
2020/12/03 04:18:16;;;;;;;;;;;;;19.00;96411.00;;;;5091718;28;1909;-32
2020/12/03 04:20:43;;;;;;;;;;;;;19.00;96403.00;;;;5091575;28;1202;-33
2020/12/03 04:23:09;;;;;;;;;;;;;19.00;96407.00;;;;5091563;28;1120;-33
2020/12/03 04:25:35;;;;;;;;;;;;;19.00;96397.00;;;;5091582;28;1112;-33
2020/12/03 04:28:01;;;;;;;;;;;;;19.00;96397.00;;;;5091387;28;1079;-35
2020/12/03 04:30:27;;;;;;;;;;;;;19.00;96405.00;;;;5091558;28;1204;-32
2020/12/03 04:32:53;;;;;;;;;;;;;18.90;96393.00;;;;5091450;28;1182;-32
2020/12/03 04:35:19;;;;;;;;;;;;;18.90;96393.00;;;;5091503;28;1531;-35
2020/12/03 04:37:46;;;;;;;;;;;;;18.90;96390.00;;;;5091309;28;1985;-32
2020/12/03 04:40:16;;;;;;;;;;;;;18.90;96388.00;;;;5091272;28;1120;-35
2020/12/03 04:42:42;;;;;;;;;;;;;18.90;96389.00;;;;5091554;28;1332;-33
2020/12/03 04:45:13;;;;;;;;;;;;;18.90;96389.00;;;;5094111;28;1027;-33
2020/12/03 04:47:45;;;;;;;;;;;;;18.90;96387.00;;;;5095135;28;1087;-34
2020/12/03 04:50:12;;;;;;;;;;;;;18.90;96385.00;;;;5094877;28;1059;-32
2020/12/03 04:52:57;;;;;;;;;;;;;18.90;96380.00;;;;5095044;28;1302;-34
2020/12/03 04:55:24;;;;;;;;;;;;;18.80;96388.00;;;;5095440;28;1083;-34
2020/12/03 04:57:51;;;;;;;;;;;;;18.80;96372.00;;;;5094981;28;1906;-32
2020/12/03 05:00:22;;;;;;;;;;;;;18.80;96376.00;;;;5094409;28;1384;-32
2020/12/03 05:03:03;;;;;;;;;;;;;18.80;96378.00;;;;5094438;28;1067;-32
2020/12/03 05:05:35;;;;;;;;;;;;;18.80;96378.00;;;;5094733;28;1172;-33
2020/12/03 05:08:02;;;;;;;;;;;;;18.80;96378.00;;;;5094636;28;1124;-32
2020/12/03 05:10:31;;;;;;;;;;;;;18.80;96375.00;;;;5094317;28;1290;-32
2020/12/03 05:12:57;;;;;;;;;;;;;18.80;96380.00;;;;5094323;28;1187;-34
2020/12/03 05:15:24;;;;;;;;;;;;;18.80;96377.00;;;;5094630;28;1120;-32
2020/12/03 05:17:58;;;;;;;;;;;;;18.80;96374.00;;;;5094488;28;1901;-33
2020/12/03 05:20:25;;;;;;;;;;;;;18.70;96372.00;;;;5094361;28;1290;-34
2020/12/03 05:22:56;;;;;;;;;;;;;18.70;96372.00;;;;5094304;28;1075;-31
2020/12/03 05:25:22;;;;;;;;;;;;;18.70;96375.00;;;;5094368;28;1541;-31
2020/12/03 05:27:49;;;;;;;;;;;;;18.70;96376.00;;;;5094006;28;1179;-33
2020/12/03 05:30:15;;;;;;;;;;;;;18.70;96380.00;;;;5094204;28;1015;-32
2020/12/03 05:32:41;;;;;;;;;;;;;18.70;96382.00;;;;5094075;28;1339;-33
2020/12/03 05:35:08;;;;;;;;;;;;;18.70;96370.00;;;;5094240;28;1171;-33
2020/12/03 05:37:34;;;;;;;;;;;;;18.60;96379.00;;;;5094233;28;1910;-32
2020/12/03 05:40:00;;;;;;;;;;;;;18.60;96376.00;;;;5093683;28;1180;-32
2020/12/03 05:42:27;;;;;;;;;;;;;18.60;96373.00;;;;5094096;28;1181;-33
2020/12/03 05:44:54;;;;;;;;;;;;;18.60;96365.00;;;;5094066;28;1090;-33
2020/12/03 05:47:21;;;;;;;;;;;;;18.60;96364.00;;;;5093959;28;1283;-34
2020/12/03 05:49:47;;;;;;;;;;;;;18.60;96362.00;;;;5093541;28;1116;-32
2020/12/03 05:52:14;;;;;;;;;;;;;18.60;96367.00;;;;5093689;28;1207;-33
2020/12/03 05:54:40;;;;;;;;;;;;;18.60;96368.00;;;;5093589;28;1037;-33
2020/12/03 05:57:19;;;;;;;;;;;;;18.60;96360.00;;;;5093866;28;1090;-32
2020/12/03 05:59:50;;;;;;;;;;;;;18.50;96360.00;;;;5092602;28;2033;-32
2020/12/03 06:02:18;;;;;;;;;;;;;18.50;96363.00;;;;5093713;28;1320;-32
2020/12/03 06:04:45;;;;;;;;;;;;;18.50;96363.00;;;;5093574;28;1120;-33
2020/12/03 06:07:20;;;;;;;;;;;;;18.50;96367.00;;;;5093364;28;1164;-32
2020/12/03 06:09:59;;;;;;;;;;;;;18.50;96362.00;;;;5093357;28;1027;-32
2020/12/03 06:12:29;;;;;;;;;;;;;18.50;96362.00;;;;5093481;28;1373;-32
2020/12/03 06:15:12;;;;;;;;;;;;;18.50;96358.00;;;;5092928;28;1280;-30
2020/12/03 06:17:42;;;;;;;;;;;;;18.50;96364.00;;;;5091487;28;1898;-35
2020/12/03 06:20:14;;;;;;;;;;;;;18.50;96365.00;;;;5092689;28;1287;-33
2020/12/03 06:22:45;;;;;;;;;;;;;18.50;96366.00;;;;5093352;28;1334;-32
2020/12/03 06:25:22;;;;;;;;;;;;;18.50;96364.00;;;;5092901;28;1968;-33
2020/12/03 06:27:58;;;;;;;;;;;;;18.40;96367.00;;;;5091879;28;1070;-32
2020/12/03 06:30:24;;;;;;;;;;;;;18.40;96373.00;;;;5092306;28;1217;-32
2020/12/03 06:32:56;;;;;;;;;;;;;18.40;96372.00;;;;5093172;28;1028;-34
2020/12/03 06:35:25;;;;;;;;;;;;;18.50;96375.00;;;;5092711;28;1187;-32
2020/12/03 06:37:52;;;;;;;;;;;;;18.50;96369.00;;;;5092645;28;2104;-33
2020/12/03 06:40:19;;;;;;;;;;;;;18.60;96365.00;;;;5091578;28;1036;-32
2020/12/03 06:42:45;;;;;;;;;;;;;18.70;96365.00;;;;5092913;28;1460;-32
2020/12/03 06:45:15;;;;;;;;;;;;;18.70;96373.00;;;;5092567;28;1171;-32
2020/12/03 06:47:55;;;;;;;;;;;;;18.90;96376.00;;;;5088710;28;2485;-44
2020/12/03 06:50:33;;;;;;;;;;;;;19.00;96378.00;;;;5089108;28;2184;-36
2020/12/03 06:53:19;;;;;;;;;;;;;19.10;96378.00;;;;5092093;28;2219;-42
2020/12/03 06:56:00;;;;;;;;;;;;;19.30;96386.00;;;;5091418;28;2224;-41
2020/12/03 06:58:44;;;;;;;;;;;;;19.40;96377.00;;;;5072195;28;1898;-37
2020/12/03 07:01:15;;;;;;;;;;;;;19.50;96387.00;;;;5090471;28;1912;-32
2020/12/03 07:03:51;;;;;;;;;;;;;19.60;96381.00;;;;5092491;28;956;-42
2020/12/03 07:06:31;;;;;;;;;;;;;19.60;96386.00;;;;5092366;28;2195;-43
2020/12/03 07:09:06;;;;;;;;;;;;;19.70;96382.00;;;;5083645;28;1349;-40
2020/12/03 07:12:02;;;;;;;;;;;;;19.80;96386.00;;;;5092305;28;1203;-44
2020/12/03 07:14:42;;;;;;;;;;;;;20.00;96383.00;;;;5092377;28;1511;-45
2020/12/03 07:17:41;;;;;;;;;;;;;20.00;96383.00;;;;5092068;28;1103;-33
2020/12/03 07:20:25;;;;;;;;;;;;;20.10;96385.00;;;;5048924;28;1196;-39
2020/12/03 07:22:53;;;;;;;;;;;;;20.20;96381.00;;;;5035633;28;2182;-44
2020/12/03 07:25:19;;;;;;;;;;;;;20.30;96376.00;;;;5053604;28;1177;-43
2020/12/03 07:28:02;;;;;;;;;;;;;20.40;96390.00;;;;5072318;28;1073;-43
2020/12/03 07:30:37;;;;;;;;;;;;;20.50;96380.00;;;;5071766;28;1221;-44
2020/12/03 07:33:03;;;;;;;;;;;;;20.60;96379.00;;;;5072077;28;1116;-43
2020/12/03 07:35:30;;;;;;;;;;;;;20.60;96370.00;;;;5071930;28;1069;-45
2020/12/03 07:38:01;;;;;;;;;;;;;20.70;96375.00;;;;5071568;28;1980;-45
2020/12/03 07:40:27;;;;;;;;;;;;;20.80;96376.00;;;;5071631;28;1136;-43
2020/12/03 07:42:59;;;;;;;;;;;;;20.70;96369.00;;;;5071644;28;1076;-38
2020/12/03 07:45:32;;;;;;;;;;;;;19.40;96359.00;;;;5075889;28;1669;-41
2020/12/03 07:48:05;;;;;;;;;;;;;19.00;96345.00;;;;5089389;28;1452;-36
2020/12/03 07:50:48;;;;;;;;;;;;;19.70;96354.00;;;;5094969;28;1294;-46
2020/12/03 07:53:22;;;;;;;;;;;;;20.10;96368.00;;;;5091771;28;1175;-41
2020/12/03 07:55:48;;;;;;;;;;;;;20.40;96368.00;;;;5078320;28;1772;-38
2020/12/03 07:58:34;;;;;;;;;;;;;20.50;96358.00;;;;5110690;28;1978;-37
2020/12/03 08:01:00;;;;;;;;;;;;;20.60;96361.00;;;;5093579;28;1359;-43
2020/12/03 08:03:35;;;;;;;;;;;;;20.70;96353.00;;;;5091920;28;1123;-42
2020/12/03 08:06:06;;;;;;;;;;;;;20.70;96360.00;;;;5091886;28;1115;-46
2020/12/03 08:08:34;;;;;;;;;;;;;20.80;96361.00;;;;5092227;28;1086;-44
2020/12/03 08:11:00;;;;;;;;;;;;;20.90;96363.00;;;;5091452;28;1215;-44
2020/12/03 08:13:27;;;;;;;;;;;;;21.00;96361.00;;;;5091753;28;1254;-45
2020/12/03 08:15:57;;;;;;;;;;;;;21.00;96354.00;;;;5089986;28;2518;-38
2020/12/03 08:18:39;;;;;;;;;;;;;21.10;96347.00;;;;5091335;28;1987;-38
2020/12/03 08:21:05;;;;;;;;;;;;;21.20;96355.00;;;;5095793;28;1355;-36
2020/12/03 08:23:31;;;;;;;;;;;;;21.30;96352.00;;;;5095464;28;1553;-43
2020/12/03 08:25:58;;;;;;;;;;;;;21.30;96352.00;;;;5095654;28;1108;-43
2020/12/03 08:28:25;;;;;;;;;;;;;21.30;96356.00;;;;5093827;28;1730;-43
2020/12/03 08:30:51;;;;;;;;;;;;;21.40;96347.00;;;;5094300;28;1452;-40
2020/12/03 08:33:24;;;;;;;;;;;;;21.50;96348.00;;;;5075516;28;1866;-48
2020/12/03 08:35:50;;;;;;;;;;;;;21.50;96364.00;;;;5093981;28;2070;-46
2020/12/03 08:38:19;;;;;;;;;;;;;21.50;96350.00;;;;5085353;28;1902;-45
2020/12/03 08:40:45;;;;;;;;;;;;;21.60;96349.00;;;;5094229;28;2190;-41
2020/12/03 08:43:12;;;;;;;;;;;;;21.60;96352.00;;;;5094616;28;1292;-40
2020/12/03 08:45:45;;;;;;;;;;;;;21.70;96354.00;;;;5094436;28;1784;-44
2020/12/03 08:48:13;;;;;;;;;;;;;21.80;96350.00;;;;5095003;28;1171;-45
2020/12/03 08:50:40;;;;;;;;;;;;;21.80;96343.00;;;;5094229;28;1211;-46
2020/12/03 08:53:09;;;;;;;;;;;;;21.90;96341.00;;;;5094903;28;1180;-49
2020/12/03 08:55:39;;;;;;;;;;;;;21.90;96354.00;;;;5095745;28;2168;-39
2020/12/03 08:58:05;;;;;;;;;;;;;21.90;96347.00;;;;5114459;28;1979;-42
2020/12/03 09:00:31;;;;;;;;;;;;;22.00;96358.00;;;;5100597;28;1371;-42
2020/12/03 09:02:58;;;;;;;;;;;;;21.90;96357.00;;;;5094662;28;1319;-42
2020/12/03 09:05:24;;;;;;;;;;;;;21.80;96357.00;;;;5094543;28;801;-42
2020/12/03 09:07:52;;;;;;;;;;;;;21.90;96355.00;;;;5094494;28;1040;-40
2020/12/03 09:10:18;;;;;;;;;;;;;21.90;96348.00;;;;5094350;28;1096;-41
2020/12/03 09:12:46;;;;;;;;;;;;;21.90;96360.00;;;;5093746;28;2108;-41
2020/12/03 09:15:12;;;;;;;;;;;;;21.90;96353.00;;;;5094774;28;1084;-38
2020/12/03 09:17:39;;;;;;;;;;;;;21.90;96346.00;;;;5094168;28;1158;-37
2020/12/03 09:20:05;;;;;;;;;;;;;22.20;96352.00;;;;5094479;28;1981;-44
2020/12/03 09:22:32;;;;;;;;;;;;;22.20;96347.00;;;;5093571;28;1462;-36
2020/12/03 09:24:58;;;;;;;;;;;;;22.20;96349.00;;;;5094041;28;1243;-38
2020/12/03 09:27:24;;;;;;;;;;;;;22.30;96352.00;;;;5094500;28;1157;-41
2020/12/03 09:29:50;;;;;;;;;;;;;22.30;96351.00;;;;5093472;28;1503;-41
2020/12/03 09:32:17;;;;;;;;;;;;;22.40;96342.00;;;;5094152;28;1211;-40
2020/12/03 09:34:43;;;;;;;;;;;;;22.40;96334.00;;;;5093951;28;1276;-32
2020/12/03 09:37:09;;;;;;;;;;;;;22.50;96343.00;;;;5093098;28;1425;-45
2020/12/03 09:39:35;;;;;;;;;;;;;22.50;96339.00;;;;5093224;28;1906;-48
2020/12/03 09:42:02;;;;;;;;;;;;;22.50;96343.00;;;;5091570;28;1361;-38
2020/12/03 09:44:28;;;;;;;;;;;;;22.50;96340.00;;;;5093543;28;1194;-40
2020/12/03 09:46:54;;;;;;;;;;;;;22.60;96336.00;;;;5092089;28;1221;-34
2020/12/03 09:49:21;;;;;;;;;;;;;22.60;96337.00;;;;5093331;28;1138;-45
2020/12/03 09:51:47;;;;;;;;;;;;;22.60;96337.00;;;;5092282;28;1405;-42
2020/12/03 09:54:13;;;;;;;;;;;;;22.60;96342.00;;;;5091440;28;1066;-43
2020/12/03 09:56:39;;;;;;;;;;;;;22.70;96341.00;;;;5094231;28;1343;-43
2020/12/03 09:59:07;;;;;;;;;;;;;22.70;96353.00;;;;5092767;28;1980;-45
2020/12/03 10:01:46;;;;;;;;;;;;;22.70;96348.00;;;;5092774;28;1311;-41
2020/12/03 10:04:18;;;;;;;;;;;;;22.70;96343.00;;;;5093002;28;1205;-44
2020/12/03 10:06:47;;;;;;;;;;;;;22.70;96322.00;;;;5090252;28;1218;-43
2020/12/03 10:09:21;;;;;;;;;;;;;22.80;96317.00;;;;5092279;28;1252;-41
2020/12/03 10:12:21;;;;;;;;;;;;;22.80;96310.00;;;;5092250;28;1385;-44
2020/12/03 10:15:00;;;;;;;;;;;;;22.80;96296.00;;;;5092260;28;1201;-33
2020/12/03 10:17:28;;;;;;;;;;;;;22.40;96298.00;;;;5090171;28;1959;-35
2020/12/03 10:19:54;;;;;;;;;;;;;22.60;96296.00;;;;5092485;28;1909;-42
2020/12/03 10:22:27;;;;;;;;;;;;;22.80;96305.00;;;;5092388;28;1217;-45
2020/12/03 10:24:54;;;;;;;;;;;;;22.80;96309.00;;;;5092309;28;1389;-46
2020/12/03 10:27:21;;;;;;;;;;;;;22.50;96296.00;;;;5091993;28;1205;-39
2020/12/03 10:29:50;;;;;;;;;;;;;22.60;96292.00;;;;5092083;28;1260;-39
2020/12/03 10:32:17;;;;;;;;;;;;;22.80;96283.00;;;;5091804;28;1362;-42
2020/12/03 10:34:43;;;;;;;;;;;;;22.90;96277.00;;;;5090934;28;1189;-36
2020/12/03 10:37:18;;;;;;;;;;;;;22.40;96277.00;;;;5089212;28;1499;-43
2020/12/03 10:39:47;;;;;;;;;;;;;21.50;96277.00;;;;5090526;28;1983;-44
2020/12/03 10:42:13;;;;;;;;;;;;;21.10;96270.00;;;;5089048;28;1280;-47
2020/12/03 10:44:41;;;;;;;;;;;;;20.80;96263.00;;;;5092404;28;1756;-38
2020/12/03 10:47:07;;;;;;;;;;;;;20.40;96268.00;;;;5092294;28;1421;-38
2020/12/03 10:49:35;;;;;;;;;;;;;20.90;96262.00;;;;5090902;28;1115;-42
2020/12/03 10:52:01;;;;;;;;;;;;;21.50;96274.00;;;;5090229;28;1496;-43
2020/12/03 10:54:27;;;;;;;;;;;;;21.90;96272.00;;;;5089017;28;1587;-44
2020/12/03 10:56:53;;;;;;;;;;;;;22.10;96268.00;;;;5087642;28;1559;-43
2020/12/03 10:59:32;;;;;;;;;;;;;22.20;96262.00;;;;5091078;28;1910;-43
2020/12/03 11:01:58;;;;;;;;;;;;;22.40;96265.00;;;;5090435;28;1330;-46
2020/12/03 11:04:24;;;;;;;;;;;;;22.40;96264.00;;;;5090715;28;1236;-41
2020/12/03 11:06:51;;;;;;;;;;;;;22.50;96268.00;;;;5088701;28;1540;-43
2020/12/03 11:09:18;;;;;;;;;;;;;22.60;96262.00;;;;5090241;28;1229;-40
2020/12/03 11:11:44;;;;;;;;;;;;;22.70;96264.00;;;;5085927;28;1545;-46
2020/12/03 11:14:10;;;;;;;;;;;;;22.80;96264.00;;;;5090455;28;1192;-46
2020/12/03 11:16:36;;;;;;;;;;;;;22.80;96265.00;;;;5084853;28;9756;-45
2020/12/03 11:19:03;;;;;;;;;;;;;22.80;96259.00;;;;5055796;28;46676;-40
2020/12/03 11:21:30;;;;;;;;;;;;;22.90;96262.00;;;;5071605;28;1359;-45
2020/12/03 11:24:03;;;;;;;;;;;;;23.00;96257.00;;;;5081276;28;1245;-47
2020/12/03 11:26:30;;;;;;;;;;;;;23.00;96244.00;;;;5092226;28;1104;-44
2020/12/03 11:28:56;;;;;;;;;;;;;23.10;96232.00;;;;5072120;28;1853;-44
2020/12/03 11:31:29;;;;;;;;;;;;;23.10;96228.00;;;;5072511;28;1829;-46
2020/12/03 11:33:55;;;;;;;;;;;;;23.10;96227.00;;;;5070277;28;1485;-47
2020/12/03 11:36:21;;;;;;;;;;;;;23.00;96220.00;;;;5071526;28;1102;-46
2020/12/03 11:38:50;;;;;;;;;;;;;23.10;96215.00;;;;5070762;28;1905;-48
2020/12/03 11:41:23;;;;;;;;;;;;;23.20;96219.00;;;;5070457;28;1232;-52
2020/12/03 11:49:25;;;;;;;;;;;;;23.20;96208.00;;;;5068987;28;1011;-41
2020/12/03 11:51:51;;;;;;;;;;;;;23.20;96195.00;;;;5071015;28;1360;-40
2020/12/03 11:54:17;;;;;;;;;;;;;23.30;96195.00;;;;5074166;28;1327;-41
2020/12/03 11:56:43;;;;;;;;;;;;;23.30;96196.00;;;;5086895;28;1661;-41
2020/12/03 11:59:15;;;;;;;;;;;;;23.30;96187.00;;;;5093136;28;1995;-44
2020/12/03 12:01:49;;;;;;;;;;;;;23.30;96187.00;;;;5074744;28;1517;-38
2020/12/03 12:04:17;;;;;;;;;;;;;23.20;96185.00;;;;5075564;28;1035;-38
2020/12/03 12:06:58;;;;;;;;;;;;;23.20;96177.00;;;;5075575;28;1017;-38
2020/12/03 12:09:28;;;;;;;;;;;;;23.20;96173.00;;;;5075390;28;1132;-38
2020/12/03 12:11:54;;;;;;;;;;;;;23.20;96172.00;;;;5075287;28;1221;-38
2020/12/03 12:14:20;;;;;;;;;;;;;23.20;96182.00;;;;5067230;28;2309;-38
2020/12/03 12:16:47;;;;;;;;;;;;;23.20;96188.00;;;;5072485;28;1895;-38
2020/12/03 12:19:13;;;;;;;;;;;;;23.30;96182.00;;;;5069692;28;1894;-38
2020/12/03 12:21:39;;;;;;;;;;;;;23.30;96178.00;;;;5071440;28;1892;-38
2020/12/03 12:24:05;;;;;;;;;;;;;23.30;96173.00;;;;5074632;28;1177;-38
2020/12/03 12:26:31;;;;;;;;;;;;;23.30;96169.00;;;;5072483;28;1830;-38
2020/12/03 12:28:58;;;;;;;;;;;;;23.30;96164.00;;;;5074470;28;1185;-38
2020/12/03 12:31:24;;;;;;;;;;;;;23.20;96175.00;;;;5074542;28;2247;-38
2020/12/03 12:33:50;;;;;;;;;;;;;23.30;96174.00;;;;5075333;28;1083;-39
2020/12/03 12:36:16;;;;;;;;;;;;;23.20;96170.00;;;;5074698;28;1147;-38
2020/12/03 12:38:42;;;;;;;;;;;;;23.30;96149.00;;;;5074480;28;1991;-38
2020/12/03 12:41:08;;;;;;;;;;;;;23.30;96153.00;;;;5074570;28;1283;-38
2020/12/03 12:43:34;;;;;;;;;;;;;23.30;96147.00;;;;5075013;28;1076;-38
2020/12/03 12:46:01;;;;;;;;;;;;;23.30;96136.00;;;;5074518;28;2149;-38
2020/12/03 12:48:27;;;;;;;;;;;;;23.30;96135.00;;;;5073722;28;1946;-38
2020/12/03 12:50:53;;;;;;;;;;;;;23.30;96143.00;;;;5073812;28;1276;-38
2020/12/03 12:53:19;;;;;;;;;;;;;23.40;96138.00;;;;5073271;28;1240;-45
2020/12/03 12:55:45;;;;;;;;;;;;;23.40;96142.00;;;;5074953;28;1335;-45
2020/12/03 12:58:11;;;;;;;;;;;;;23.40;96136.00;;;;5070411;28;1478;-51
2020/12/03 13:00:37;;;;;;;;;;;;;23.50;96141.00;;;;5073407;28;1984;-42
2020/12/03 13:03:05;;;;;;;;;;;;;23.50;96125.00;;;;5072056;28;1175;-39
2020/12/03 13:05:31;;;;;;;;;;;;;23.50;96118.00;;;;5073292;28;1276;-43
2020/12/03 13:07:57;;;;;;;;;;;;;23.50;96121.00;;;;5071805;28;1318;-42
2020/12/03 13:10:23;;;;;;;;;;;;;23.50;96115.00;;;;5074271;28;1098;-39
2020/12/03 13:12:49;;;;;;;;;;;;;23.50;96118.00;;;;5072472;28;1580;-40
2020/12/03 13:15:15;;;;;;;;;;;;;23.50;96111.00;;;;5072541;28;1216;-44
2020/12/03 13:17:41;;;;;;;;;;;;;23.60;96106.00;;;;5073507;28;1324;-45
2020/12/03 13:20:08;;;;;;;;;;;;;23.60;96114.00;;;;5073235;28;1901;-45
2020/12/03 13:22:34;;;;;;;;;;;;;23.60;96098.00;;;;5073138;28;1859;-37
2020/12/03 13:25:00;;;;;;;;;;;;;23.60;96102.00;;;;5068607;28;1581;-47
2020/12/03 13:27:26;;;;;;;;;;;;;23.60;96112.00;;;;5070894;28;1246;-41
2020/12/03 13:29:52;;;;;;;;;;;;;23.60;96103.00;;;;5072136;28;1094;-40
2020/12/03 13:32:18;;;;;;;;;;;;;23.60;96104.00;;;;5073819;28;1207;-42
2020/12/03 13:34:44;;;;;;;;;;;;;23.70;96099.00;;;;5073435;28;1217;-42
2020/12/03 13:37:11;;;;;;;;;;;;;23.60;96096.00;;;;5073668;28;1093;-41
2020/12/03 13:39:37;;;;;;;;;;;;;23.60;96097.00;;;;5073889;28;1918;-44
2020/12/03 13:42:03;;;;;;;;;;;;;23.70;96099.00;;;;5073519;28;1373;-58
2020/12/03 13:44:29;;;;;;;;;;;;;23.70;96108.00;;;;5074047;28;1286;-48
2020/12/03 13:46:55;;;;;;;;;;;;;23.70;96102.00;;;;5072959;28;1217;-44
2020/12/03 13:49:21;;;;;;;;;;;;;23.70;96112.00;;;;5071886;28;1232;-43
2020/12/03 13:51:47;;;;;;;;;;;;;23.70;96119.00;;;;5072736;28;1349;-48
2020/12/03 13:54:14;;;;;;;;;;;;;23.70;96126.00;;;;5073968;28;1117;-59
2020/12/03 13:56:40;;;;;;;;;;;;;23.70;96125.00;;;;5072893;28;1631;-41
2020/12/03 13:59:06;;;;;;;;;;;;;23.80;96121.00;;;;5072425;28;2023;-53
2020/12/03 14:01:33;;;;;;;;;;;;;23.70;96124.00;;;;5073298;28;1271;-56
2020/12/03 14:03:59;;;;;;;;;;;;;23.80;96122.00;;;;5073267;28;1117;-50